Latest Weather Observations for Albury

IDV60801

Issued at 10:32 am EST Friday 1 July 2016 (issued every 30 minutes, with the page automatically refreshed every 10 minutes)

About weather observations | Map of weather stations | Latest weather observations for VIC | Other Formats
Station Details ID: 072160 Name: ALBURY AIRPORT AWS Lat: -36.07 Lon: 146.95 Height: 163.5 m
Data from the previous 72 hours. | See also: Recent months at Albury
Date/Time
EST
Temp
°C
App
Temp
°C
Dew
Point
°C
Rel
Hum
%
Delta-T
°C
Wind Press
QNH
hPa
Press
MSL
hPa
Rain since
9am
mm
Dir  Spd
km/h
Gust
km/h
Spd
kts
Gust
kts
01/10:30am 8.2 5.2 6.0 86 1.0 WSW 11 17 6 9 1020.0 1020.4 0.0
01/10:00am 7.5 4.0 5.6 88 0.9 W 13 17 7 9 1019.9 1020.3 0.0
01/09:30am 7.4 4.4 6.0 91 0.6 W 11 15 6 8 1019.1 1019.4 0.0
01/09:00am 7.3 4.8 6.7 96 0.3 WSW 9 13 5 7 1018.7 1019.0 11.4
01/08:30am 7.0 4.6 7.0 100 0.0 WNW 9 11 5 6 1018.2 1018.5 11.4
01/08:00am 5.7 4.7 5.7 100 0.0 CALM 0 0 0 0 1017.7 1018.0 11.4
01/07:30am 5.4 4.0 5.4 100 0.0 SE 2 6 1 3 1017.3 1017.5 11.4
01/07:00am 5.8 3.7 5.8 100 0.0 SSE 6 7 3 4 1016.8 1017.0 11.4
01/06:52am 5.8 3.7 5.8 100 0.0 SSE 6 7 3 4 1016.7 1016.9 11.4
01/06:30am 6.0 5.1 6.0 100 0.0 CALM 0 0 0 0 1016.1 1016.3 11.4
01/06:00am 5.9 5.0 5.9 100 0.0 CALM 0 0 0 0 1015.3 1015.6 11.2
01/05:30am 6.0 5.1 6.0 100 0.0 CALM 0 0 0 0 1014.8 1015.1 11.2
01/05:00am 6.0 3.9 6.0 100 0.0 SE 6 7 3 4 1014.4 1014.7 11.2
01/04:30am 6.0 3.7 5.9 99 0.0 SE 7 9 4 5 1014.1 1014.4 10.8
01/04:00am 6.0 3.9 5.9 99 0.0 SE 6 7 3 4 1013.7 1014.0 10.4
01/03:39am 6.0 3.9 5.7 98 0.1 ESE 6 7 3 4 1013.5 1013.8 10.2
01/03:30am 6.0 5.0 5.6 97 0.2 CALM 0 6 0 3 1013.4 1013.7 10.2
01/03:07am 6.0 3.9 5.6 97 0.2 W 6 7 3 4 1013.6 1013.9 9.8
01/03:00am 6.1 4.0 5.7 97 0.2 NW 6 7 3 4 1013.5 1013.8 9.6
01/02:43am 6.2 3.4 5.3 94 0.4 WNW 9 11 5 6 1013.4 1013.7 9.4
01/02:38am 6.3 3.5 5.3 93 0.4 NW 9 13 5 7 1013.4 1013.7 9.2
01/02:30am 6.4 3.2 5.0 91 0.6 WNW 11 17 6 9 1013.3 1013.6 9.2
01/02:27am 6.4 2.8 5.0 91 0.6 WNW 13 17 7 9 1013.3 1013.6 9.2
01/02:00am 6.9 3.0 5.2 89 0.8 WNW 15 20 8 11 1013.2 1013.5 9.0
01/01:38am 7.2 3.3 5.3 88 0.9 NW 15 24 8 13 1013.0 1013.3 9.0
01/01:30am 7.1 3.2 5.3 88 0.8 NNW 15 22 8 12 1012.9 1013.2 9.0
01/01:08am 6.9 3.5 5.7 92 0.5 NNW 13 19 7 10 1013.0 1013.3 9.0
01/01:00am 6.7 3.2 5.5 92 0.5 NW 13 17 7 9 1013.1 1013.4 9.0
01/12:30am 7.2 2.6 5.5 89 0.8 NW 19 26 10 14 1013.4 1013.7 9.0
01/12:00am 7.2 2.6 5.5 89 0.8 NW 19 37 10 20 1013.2 1013.5 9.0
 
Date/Time
EST
Temp
°C
App
Temp
°C
Dew
Point
°C
Rel
Hum
%
Delta-T
°C
Wind Press
QNH
hPa
Press
MSL
hPa
Rain since
9am
mm
Dir  Spd
km/h
Gust
km/h
Spd
kts
Gust
kts
30/11:30pm 6.7 4.0 5.5 92 0.5 NNW 9 13 5 7 1013.4 1013.7 9.0
30/11:08pm 6.5 3.8 5.5 93 0.4 NNW 9 13 5 7 1013.3 1013.6 9.0
30/11:00pm 6.5 3.8 5.6 94 0.4 N 9 13 5 7 1013.4 1013.7 9.0
30/10:30pm 6.6 3.9 5.6 93 0.4 N 9 13 5 7 1013.4 1013.7 9.0
30/10:00pm 6.3 3.6 5.6 95 0.3 WNW 9 15 5 8 1013.2 1013.5 9.0
30/09:30pm 6.3 3.6 5.7 96 0.3 N 9 13 5 7 1013.0 1013.3 9.0
30/09:00pm 6.4 3.3 5.5 94 0.4 NW 11 15 6 8 1012.4 1012.7 8.8
30/08:30pm 6.7 0.0 5.5 92 0.5 W 30 43 16 23 1012.8 1013.1 7.6
30/08:20pm 6.9 -0.2 5.7 92 0.5 WNW 32 50 17 27 1012.6 1012.9 6.8
30/08:17pm 6.9 -0.1 5.8 93 0.5 WNW 32 43 17 23 1012.5 1012.8 6.2
30/08:00pm 6.9 0.0 4.7 86 1.0 NW 30 59 16 32 1012.3 1012.6 4.6
30/07:57pm 8.1 1.6 6.6 90 0.7 NNW 30 59 16 32 1012.6 1012.9 4.0
30/07:56pm 8.8 2.9 7.7 93 0.5 N 28 43 15 23 1012.2 1012.4 3.6
30/07:53pm 9.0 3.2 7.8 92 0.6 N 28 46 15 25 1011.1 1011.3 2.0
30/07:40pm 9.4 2.7 7.5 88 0.9 N 32 44 17 24 1010.5 1010.7 1.2
30/07:30pm 9.3 2.4 7.4 88 0.9 NNE 33 46 18 25 1010.4 1010.6 1.2
30/07:29pm 9.3 2.4 7.4 88 0.9 NNE 33 46 18 25 1010.4 1010.6 1.2
30/07:00pm 9.7 3.7 7.1 84 1.2 NNE 28 44 15 24 1011.1 1011.3 1.2
30/06:30pm 9.8 3.8 7.1 83 1.3 N 28 41 15 22 1011.4 1011.6 1.2
30/06:00pm 9.3 4.4 7.1 86 1.0 NNE 22 32 12 17 1011.2 1011.4 1.2
30/05:30pm 9.4 4.6 7.2 86 1.0 NNE 22 32 12 17 1011.3 1011.5 1.2
30/05:00pm 9.7 4.4 6.8 82 1.4 NNE 24 32 13 17 1011.5 1011.7 0.8
30/04:30pm 9.7 6.5 6.8 82 1.4 NNE 13 20 7 11 1012.0 1012.2 0.8
30/04:00pm 9.5 7.1 6.9 84 1.2 NNE 9 13 5 7 1012.3 1012.6 0.8
30/03:30pm 9.5 5.9 6.6 82 1.4 N 15 22 8 12 1012.6 1012.9 0.8
30/03:00pm 9.6 6.4 6.7 82 1.4 N 13 19 7 10 1012.9 1013.2 0.6
30/02:30pm 9.5 5.5 6.6 82 1.4 N 17 24 9 13 1013.2 1013.5 0.6
30/02:00pm 9.2 4.7 7.0 86 1.0 N 20 28 11 15 1013.8 1014.1 0.6
30/01:30pm 9.7 5.2 6.8 82 1.4 N 20 32 11 17 1014.4 1014.7 0.0
30/01:20pm 10.0 5.5 6.3 78 1.7 N 19 28 10 15 1014.6 1014.9 0.0
30/01:00pm 10.1 6.1 6.6 79 1.7 N 17 24 9 13 1015.2 1015.5 0.0
30/12:30pm 10.4 6.0 6.7 78 1.8 N 19 28 10 15 1016.0 1016.2 0.0
30/12:00pm 10.1 5.5 6.6 79 1.7 N 20 32 11 17 1016.6 1016.8 0.0
30/11:38am 9.9 6.8 7.3 84 1.2 N 13 19 7 10 1017.3 1017.5 0.0
30/11:30am 9.6 5.7 6.9 83 1.3 N 17 22 9 12 1017.3 1017.5 0.0
30/11:00am 9.3 5.0 6.9 85 1.1 N 19 30 10 16 1017.9 1018.2 0.0
30/10:54am 9.3 5.0 6.9 85 1.1 N 19 26 10 14 1018.0 1018.3 0.0
30/10:30am 9.4 5.5 7.2 86 1.0 N 17 28 9 15 1018.2 1018.5 0.0
30/10:00am 9.2 5.3 7.0 86 1.0 N 17 22 9 12 1018.6 1018.9 0.0
30/09:30am 8.8 5.3 7.1 89 0.8 N 15 20 8 11 1018.7 1019.0 0.0
30/09:00am 8.5 5.0 7.0 90 0.7 N 15 20 8 11 1019.0 1019.3 0.0
30/08:30am 8.0 6.1 7.7 98 0.1 N 7 11 4 6 1019.5 1019.8 0.0
30/08:00am 7.3 4.6 7.3 100 0.0 NNE 11 17 6 9 1019.5 1019.8 0.0
30/07:30am 6.9 4.5 6.9 100 0.0 NNE 9 13 5 7 1019.6 1019.9 0.0
30/07:00am 6.7 4.2 6.7 100 0.0 NNE 9 13 5 7 1019.4 1019.7 0.0
30/06:30am 5.8 4.1 5.8 100 0.0 NE 4 13 2 7 1019.4 1019.7 0.0
30/06:00am 5.4 4.0 5.4 100 0.0 ENE 2 9 1 5 1019.6 1019.9 0.0
30/05:57am 5.5 3.7 5.5 100 0.0 ENE 4 9 2 5 1019.6 1019.9 0.0
30/05:30am 5.4 3.6 5.4 100 0.0 E 4 7 2 4 1019.9 1020.2 0.0
30/05:00am 5.3 3.9 5.3 100 0.0 N 2 7 1 4 1020.2 1020.5 0.0
30/04:47am 5.3 4.2 5.3 100 0.0 CALM 0 0 0 0 1020.3 1020.6 0.0
30/04:38am 5.4 4.4 5.4 100 0.0 CALM 0 0 0 0 1020.3 1020.6 0.0
30/04:30am 5.5 4.5 5.5 100 0.0 CALM 0 0 0 0 1020.5 1020.8 0.0
30/04:13am 5.8 4.1 5.8 100 0.0 NNW 4 7 2 4 1020.6 1020.9 0.0
30/04:00am 5.9 3.8 5.9 100 0.0 N 6 9 3 5 1020.8 1021.1 0.0
30/03:30am 5.9 5.0 5.9 100 0.0 CALM 0 0 0 0 1021.1 1021.4 0.0
30/03:00am 5.7 4.0 5.7 100 0.0 NNW 4 7 2 4 1021.4 1021.7 0.0
30/02:30am 5.5 4.5 5.5 100 0.0 CALM 0 0 0 0 1021.5 1021.8 0.0
30/02:00am 5.3 4.2 5.3 100 0.0 CALM 0 0 0 0 1021.9 1022.2 0.0
30/01:30am 4.8 3.6 4.8 100 0.0 CALM 0 0 0 0 1022.2 1022.4 0.0
30/01:00am 4.0 2.7 4.0 100 0.0 CALM 0 0 0 0 1022.3 1022.5 0.0
30/12:30am 3.8 2.4 3.8 100 0.0 CALM 0 0 0 0 1022.6 1022.9 0.0
30/12:00am 3.2 1.7 3.1 99 0.0 CALM 0 0 0 0 1023.1 1023.4 0.0
 
Date/Time
EST
Temp
°C
App
Temp
°C
Dew
Point
°C
Rel
Hum
%
Delta-T
°C
Wind Press
QNH
hPa
Press
MSL
hPa
Rain since
9am
mm
Dir  Spd
km/h
Gust
km/h
Spd
kts
Gust
kts
29/11:30pm 3.8 2.4 3.7 99 0.0 CALM 0 0 0 0 1023.2 1023.5 0.0
29/11:28pm 3.7 2.3 3.6 99 0.0 CALM 0 0 0 0 1023.2 1023.5 0.0
29/11:25pm 3.6 2.2 3.5 99 0.0 CALM 0 0 0 0 1023.3 1023.6 0.0
29/11:00pm 3.8 2.4 3.7 99 0.0 CALM 0 0 0 0 1023.5 1023.8 0.0
29/10:48pm 3.2 1.7 3.1 99 0.0 CALM 0 0 0 0 1023.4 1023.7 0.0
29/10:30pm 4.0 2.7 3.9 99 0.0 CALM 0 0 0 0 1023.5 1023.8 0.0
29/10:00pm 4.2 2.9 4.1 99 0.0 CALM 0 0 0 0 1023.7 1024.0 0.0
29/09:30pm 4.6 2.6 4.5 99 0.0 E 4 6 2 3 1024.0 1024.3 0.0
29/09:00pm 4.6 3.4 4.5 99 0.0 CALM 0 0 0 0 1024.2 1024.5 0.0
29/08:30pm 5.4 4.3 5.1 98 0.1 CALM 0 0 0 0 1024.5 1024.8 0.0
29/08:16pm 5.6 4.6 5.5 99 0.0 CALM 0 0 0 0 1024.5 1024.8 0.0
29/08:02pm 6.2 5.3 6.1 99 0.0 CALM 0 0 0 0 1024.7 1025.0 0.0
29/08:00pm 6.3 5.4 6.2 99 0.0 CALM 0 0 0 0 1024.7 1025.0 0.0
29/07:30pm 6.2 5.2 5.8 97 0.2 CALM 0 0 0 0 1025.0 1025.3 0.0
29/07:00pm 7.3 6.5 6.4 94 0.4 CALM 0 0 0 0 1025.1 1025.4 0.0
29/06:30pm 8.1 7.5 7.2 94 0.4 CALM 0 0 0 0 1025.1 1025.4 0.0
29/06:00pm 8.9 7.9 7.4 90 0.7 NE 2 6 1 3 1025.1 1025.4 0.0
29/05:30pm 10.3 8.5 8.1 86 1.1 NE 7 9 4 5 1025.2 1025.5 0.0
29/05:00pm 10.8 8.6 7.7 81 1.5 ENE 9 11 5 6 1025.2 1025.5 0.0
29/04:30pm 12.4 10.9 8.5 77 2.0 ENE 6 9 3 5 1025.6 1025.9 0.0
29/04:00pm 12.2 10.5 8.3 77 1.9 E 7 9 4 5 1025.8 1026.1 0.0
29/03:30pm 12.4 9.9 8.1 75 2.1 ENE 11 13 6 7 1025.9 1026.2 0.0
29/03:00pm 13.1 11.1 8.8 75 2.2 ENE 9 11 5 6 1026.1 1026.4 0.0
29/02:30pm 12.2 10.2 8.7 79 1.8 E 9 13 5 7 1026.3 1026.6 0.0
29/02:00pm 12.0 10.4 8.7 80 1.6 ENE 7 9 4 5 1026.4 1026.7 0.0
29/01:30pm 11.9 10.3 8.6 80 1.7 NE 7 9 4 5 1026.9 1027.2 0.0
29/01:00pm 12.2 10.8 9.0 81 1.6 NE 6 9 3 5 1027.2 1027.5 0.0
29/12:42pm 12.0 10.5 9.0 82 1.5 NNE 7 9 4 5 1027.5 1027.9 0.0
29/12:30pm 11.8 10.4 8.8 82 1.5 NE 6 9 3 5 1027.7 1028.1 0.0
29/12:00pm 11.4 10.0 9.0 85 1.2 NE 6 9 3 5 1028.4 1028.8 0.0
29/11:30am 11.1 9.6 9.0 87 1.1 ENE 7 9 4 5 1029.0 1029.3 0.0
29/11:00am 11.0 9.6 9.4 90 0.8 NE 7 9 4 5 1029.3 1029.6 0.0
29/10:30am 10.3 9.0 9.1 92 0.6 E 6 9 3 5 1029.7 1030.0 0.0
29/10:00am 10.3 8.9 9.5 95 0.4 NE 7 9 4 5 1029.6 1029.9 0.0
29/09:30am 10.1 8.7 9.5 96 0.3 NE 7 9 4 5 1029.5 1029.8 0.0
29/09:00am 9.5 7.7 9.4 99 0.0 NE 9 11 5 6 1029.5 1029.8 0.8
29/08:38am 9.3 7.8 9.3 100 0.0 ENE 7 9 4 5 1029.5 1029.8 0.8
29/08:30am 9.1 7.6 9.1 100 0.0 NE 7 7 4 4 1029.5 1029.8 0.8
29/08:00am 8.6 7.1 8.6 100 0.0 NE 6 7 3 4 1029.4 1029.7 0.8
29/07:52am 8.5 6.8 8.5 100 0.0 NE 7 7 4 4 1029.3 1029.6 0.8
29/07:37am 8.5 6.8 8.5 100 0.0 ENE 7 9 4 5 1029.2 1029.5 0.8
29/07:30am 8.6 7.0 8.6 100 0.0 E 7 7 4 4 1029.2 1029.5 0.8
29/07:14am 8.6 8.3 8.6 100 0.0 CALM 0 7 0 4 1029.1 1029.4 0.8
29/07:05am 8.6 8.3 8.6 100 0.0 CALM 0 0 0 0 1029.1 1029.4 0.8
29/07:00am 8.6 8.3 8.6 100 0.0 CALM 0 0 0 0 1029.0 1029.3 0.8
29/06:37am 8.7 8.4 8.7 100 0.0 CALM 0 0 0 0 1028.8 1029.1 0.8
29/06:30am 8.7 8.4 8.7 100 0.0 CALM 0 0 0 0 1028.8 1029.1 0.8
29/06:25am 8.7 8.4 8.7 100 0.0 CALM 0 0 0 0 1028.8 1029.1 0.8
29/06:14am 8.7 7.3 8.7 100 0.0 ENE 6 7 3 4 1028.8 1029.1 0.8
29/06:01am 8.7 7.3 8.7 100 0.0 ENE 6 7 3 4 1028.7 1029.0 0.8
29/06:00am 8.7 7.3 8.7 100 0.0 ENE 6 7 3 4 1028.7 1029.0 0.8
29/05:42am 8.7 7.3 8.7 100 0.0 ENE 6 7 3 4 1028.6 1028.9 0.8
29/05:40am 8.8 7.4 8.8 100 0.0 ENE 6 7 3 4 1028.6 1028.9 0.8
29/05:39am 8.8 7.4 8.8 100 0.0 ENE 6 7 3 4 1028.6 1028.9 0.8
29/05:30am 8.7 7.3 8.7 100 0.0 E 6 7 3 4 1028.4 1028.8 0.8
29/05:00am 8.8 8.5 8.8 100 0.0 CALM 0 0 0 0 1028.2 1028.6 0.8
29/04:45am 8.8 8.5 8.8 100 0.0 CALM 0 0 0 0 1028.2 1028.6 0.6
29/04:34am 8.8 8.5 8.8 100 0.0 CALM 0 0 0 0 1028.2 1028.6 0.6
29/04:30am 8.8 8.5 8.8 100 0.0 CALM 0 0 0 0 1028.1 1028.5 0.6
29/04:10am 8.8 8.5 8.8 100 0.0 CALM 0 0 0 0 1028.1 1028.5 0.6
29/04:00am 8.7 8.4 8.7 100 0.0 CALM 0 0 0 0 1028.0 1028.4 0.6
29/03:58am 8.7 8.4 8.7 100 0.0 CALM 0 6 0 3 1028.0 1028.4 0.6
29/03:46am 8.7 7.3 8.7 100 0.0 NE 6 7 3 4 1028.0 1028.4 0.6
29/03:30am 8.7 7.3 8.7 100 0.0 ENE 6 9 3 5 1028.1 1028.5 0.6
29/03:00am 8.9 8.7 8.9 100 0.0 CALM 0 0 0 0 1028.3 1028.7 0.6
29/02:30am 9.0 7.6 9.0 100 0.0 NE 6 7 3 4 1028.6 1028.9 0.6
29/02:00am 9.0 7.5 9.0 100 0.0 NNE 7 9 4 5 1028.4 1028.8 0.6
29/01:30am 9.0 7.1 9.0 100 0.0 NE 9 13 5 7 1028.7 1029.0 0.6
29/01:00am 9.0 7.5 9.0 100 0.0 E 7 9 4 5 1028.7 1029.0 0.6
29/12:30am 9.0 7.6 9.0 100 0.0 NE 6 7 3 4 1028.9 1029.2 0.6
29/12:00am 8.9 7.3 8.9 100 0.0 NNE 7 9 4 5 1029.0 1029.3 0.6
 
Date/Time
EST
Temp
°C
App
Temp
°C
Dew
Point
°C
Rel
Hum
%
Delta-T
°C
Wind Press
QNH
hPa
Press
MSL
hPa
Rain since
9am
mm
Dir  Spd
km/h
Gust
km/h
Spd
kts
Gust
kts
28/11:46pm 8.9 7.5 8.9 100 0.0 NE 6 7 3 4 1029.1 1029.4 0.6
28/11:30pm 8.8 7.4 8.8 100 0.0 NE 6 7 3 4 1029.0 1029.3 0.6
28/11:15pm 8.8 7.4 8.8 100 0.0 E 6 7 3 4 1029.1 1029.4 0.6
28/11:08pm 8.8 7.4 8.8 100 0.0 ESE 6 6 3 3 1029.2 1029.5 0.6
28/11:00pm 8.8 7.4 8.8 100 0.0 ESE 6 7 3 4 1029.3 1029.6 0.6
28/10:30pm 8.8 8.5 8.8 100 0.0 CALM 0 0 0 0 1029.3 1029.6 0.6
28/10:00pm 8.8 8.5 8.7 99 0.0 CALM 0 4 0 2 1029.2 1029.5 0.2
28/09:45pm 8.9 7.5 8.8 99 0.0 NE 6 6 3 3 1029.1 1029.4 0.2
28/09:42pm 8.9 7.5 8.8 99 0.0 NE 6 6 3 3 1029.1 1029.4 0.2
28/09:30pm 8.8 7.8 8.7 99 0.0 NE 4 6 2 3 1029.1 1029.4 0.2
28/09:00pm 9.0 8.8 8.9 99 0.0 CALM 0 0 0 0 1029.0 1029.3 0.2
28/08:44pm 9.1 8.9 9.0 99 0.0 CALM 0 0 0 0 1029.0 1029.3 0.2
28/08:38pm 9.0 8.8 8.9 99 0.0 CALM 0 0 0 0 1029.0 1029.3 0.2
28/08:30pm 9.0 8.8 8.9 99 0.0 CALM 0 0 0 0 1028.9 1029.2 0.2
28/08:04pm 9.0 8.7 8.6 97 0.2 CALM 0 0 0 0 1028.9 1029.2 0.0
28/08:00pm 9.0 8.7 8.6 97 0.2 CALM 0 2 0 1 1028.8 1029.1 0.0
28/07:57pm 9.1 8.4 8.5 96 0.3 ENE 2 6 1 3 1028.8 1029.1 0.0
28/07:35pm 9.2 7.6 8.6 96 0.3 E 7 9 4 5 1028.4 1028.8 0.0
28/07:34pm 9.2 7.6 8.6 96 0.3 E 7 9 4 5 1028.4 1028.8 0.0
28/07:30pm 9.3 7.9 8.7 96 0.3 ENE 6 9 3 5 1028.3 1028.7 0.0
28/07:19pm 9.3 7.8 8.4 94 0.4 NE 6 9 3 5 1028.3 1028.7 0.0
28/07:00pm 9.6 9.3 8.5 93 0.5 CALM 0 0 0 0 1028.2 1028.6 0.0
28/06:37pm 9.6 8.5 8.4 92 0.6 NE 4 7 2 4 1028.0 1028.4 0.0
28/06:30pm 9.6 8.4 8.0 90 0.8 N 4 6 2 3 1027.8 1028.2 0.0
28/06:00pm 9.8 9.4 8.4 91 0.7 CALM 0 0 0 0 1027.7 1028.1 0.0
28/05:55pm 9.7 9.3 8.3 91 0.7 CALM 0 0 0 0 1027.6 1028.0 0.0
28/05:30pm 9.6 9.2 8.2 91 0.7 CALM 0 0 0 0 1027.4 1027.7 0.0
28/05:28pm 9.6 9.1 8.0 90 0.8 CALM 0 0 0 0 1027.4 1027.7 0.0
28/05:00pm 9.9 7.7 8.0 88 0.9 NE 9 9 5 5 1027.1 1027.4 0.0
28/04:55pm 9.9 7.7 8.0 88 0.9 ENE 9 9 5 5 1027.1 1027.4 0.0
28/04:30pm 10.5 9.6 7.7 83 1.4 NNW 2 11 1 6 1027.0 1027.3 0.0
28/04:00pm 10.3 8.6 7.7 84 1.3 SE 6 7 3 4 1026.9 1027.2 0.0
28/03:49pm 10.5 8.8 7.6 82 1.4 ESE 6 7 3 4 1026.8 1027.1 0.0
28/03:30pm 10.7 9.0 7.6 81 1.5 ESE 6 7 3 4 1026.6 1026.9 0.0
28/03:16pm 10.9 9.2 7.6 80 1.6 SSE 6 9 3 5 1026.4 1026.7 0.0
28/03:00pm 10.9 9.2 7.6 80 1.6 WSW 6 11 3 6 1026.3 1026.6 0.0
28/02:30pm 10.7 8.0 7.2 79 1.7 W 11 17 6 9 1026.4 1026.7 0.0
28/02:22pm 10.8 8.0 6.9 77 1.9 W 11 15 6 8 1026.4 1026.7 0.0
28/02:00pm 11.1 7.9 6.8 75 2.0 W 13 17 7 9 1026.2 1026.5 0.0
28/01:30pm 11.2 9.0 6.3 72 2.3 SW 7 15 4 8 1026.2 1026.5 0.0
28/01:27pm 11.3 8.8 6.4 72 2.3 WSW 9 15 5 8 1026.2 1026.5 0.0
28/01:10pm 11.2 10.1 6.7 74 2.1 SW 2 7 1 4 1026.2 1026.5 0.0
28/01:00pm 11.1 9.1 6.3 72 2.3 NNW 6 11 3 6 1026.2 1026.5 0.0
28/12:30pm 11.4 9.8 6.5 72 2.3 E 4 9 2 5 1026.3 1026.6 0.0
28/12:00pm 10.7 9.2 7.0 78 1.8 NNE 4 7 2 4 1026.5 1026.8 0.0
28/11:30am 9.8 8.0 7.1 83 1.3 ESE 6 9 3 5 1026.8 1027.1 0.0
28/11:00am 8.8 7.2 7.9 94 0.4 ENE 6 9 3 5 1027.0 1027.3 0.0
28/10:45am 8.2 6.6 7.9 98 0.1 ENE 6 7 3 4 1027.1 1027.4 0.0

Other Formats:

Comma delimited format used in spreadsheet applications
http://www.bom.gov.au/fwo/IDV60801/IDV60801.95896.axf

JavaScript Object Notation format (JSON) in row-major order
http://www.bom.gov.au/fwo/IDV60801/IDV60801.95896.json